Flight Track Log - Related Links

Times and Time Zones

All times are in EDT time to prevent confusion due to time zone crossing. See the N184RB flight status page for this flight to view local times or setup timezone preferences in your user account.

Time Position Orientation Groundspeed Altitude Reporting Facility
EDT Latitude Longitude Course Direction KTS MPH feet Rate Location/Type
Sun 03:02:14 PM 39.3000 -76.4167 218° Southwest 155 178 1,800  Level Potomac TRACON
Sun 03:03:15 PM 39.3000 -76.4667 270° West 155 178 3,200 1,357 Climbing Potomac TRACON
Sun 03:04:09 PM 39.3000 -76.5167 270° West 151 174 4,400 1,357 Climbing Potomac TRACON
Sun 03:05:10 PM 39.3000 -76.5667 270° West 151 174 5,800 1,388 Climbing Potomac TRACON
Sun 03:06:10 PM 39.3000 -76.6167 270° West 158 182 7,200 1,300 Climbing Potomac TRACON
Sun 03:07:10 PM 39.3000 -76.6833 270° West 163 188 8,400 1,276 Climbing Potomac TRACON
Sun 03:08:17 PM 39.3000 -76.7500 270° West 169 194 9,900 1,181 Climbing Potomac TRACON
Sun 03:09:17 PM 39.3000 -76.8000 270° West 159 183 10,900 1,200 Climbing Potomac TRACON
Sun 03:10:12 PM 39.3000 -76.8500 270° West 154 177 12,200 1,304 Climbing Potomac TRACON
Sun 03:11:12 PM 39.3000 -76.9167 270° West 159 183 13,400 1,100 Climbing Potomac TRACON
Sun 03:12:12 PM 39.2833 -76.9667 247° West 161 185 14,400 833 Climbing Potomac TRACON
Sun 03:14:12 PM 39.3525 -77.0622 313° West 196 226 15,900 497 Climbing Washington Center
Sun 03:15:13 PM 39.3936 -77.1197 277° West 208 239 15,900 149 Level Washington Center
Sun 03:16:13 PM 39.4367 -77.1742 316° Northwest 214 246 16,200 650 Climbing Washington Center
Sun 03:17:13 PM 39.4733 -77.2261 312° West 214 246 17,200 843 Climbing Washington Center
Sun 03:18:14 PM 39.5061 -77.2753 311° West 199 229 17,900 454 Climbing Washington Center
Sun 03:19:12 PM 39.5428 -77.3219 316° Northwest 192 221 18,100 353 Climbing Washington Center
Sun 03:20:13 PM 39.5733 -77.3739 307° West 187 215 18,600 496 Climbing Washington Center
Sun 03:21:13 PM 39.5997 -77.4283 302° West 187 215 19,100 537 Climbing Washington Center
Sun 03:23:34 PM 39.6769 -77.5647 306° West 182 209 20,400 537 Climbing Cleveland Center
Sun 03:24:34 PM 39.7033 -77.6231 300° West 192 221 20,900 350 Climbing Cleveland Center
Sun 03:25:34 PM 39.7342 -77.6783 306° West 192 221 21,100 300 Climbing Cleveland Center
Sun 03:26:34 PM 39.7606 -77.7339 302° West 187 215 21,500 252 Climbing Cleveland Center
Sun 03:27:33 PM 39.7911 -77.7894 306° West 187 215 21,600 250 Climbing Cleveland Center
Sun 03:28:34 PM 39.8194 -77.8478 302° West 187 215 22,000 198 Climbing Cleveland Center
Sun 03:29:34 PM 39.8522 -77.9058 306° West 187 215 22,000  Level Cleveland Center
Sun 03:30:34 PM 39.8850 -77.9722 303° West 199 229 22,000  Level Cleveland Center
Sun 03:31:34 PM 39.9178 -78.0414 302° West 213 245 22,000  Level Cleveland Center
Sun 03:32:34 PM 39.9569 -78.1131 306° West 232 267 22,000  Level Cleveland Center
Sun 03:33:34 PM 39.9939 -78.1847 304° West 238 274 22,000  Level Cleveland Center
Sun 03:34:34 PM 40.0331 -78.2594 304° West 243 280 22,000  Level Cleveland Center
Sun 03:35:34 PM 40.0614 -78.3261 299° West 243 280 22,000  Level Cleveland Center
Sun 03:36:34 PM 40.0961 -78.3983 302° West 243 280 22,000  Level Cleveland Center
Sun 03:37:34 PM 40.1331 -78.4678 305° West 243 280 22,000  Level Cleveland Center
Sun 03:38:34 PM 40.1697 -78.5400 304° West 243 280 22,000  Level Cleveland Center
Sun 03:39:34 PM 40.2044 -78.6094 303° West 243 280 22,000  Level Cleveland Center
Sun 03:40:34 PM 40.2389 -78.6819 302° West 243 280 22,000  Level Cleveland Center
Sun 03:41:34 PM 40.2756 -78.7544 304° West 243 280 22,000  Level Cleveland Center
Sun 03:42:34 PM 40.3122 -78.8269 304° West 238 274 22,000  Level Cleveland Center
Sun 03:43:34 PM 40.3669 -78.8744 327° Northwest 238 274 22,000  Level Cleveland Center
Sun 03:44:34 PM 40.4283 -78.9192 331° Northwest 239 275 22,000  Level Cleveland Center
Sun 03:45:34 PM 40.4892 -78.9614 332° Northwest 249 287 22,000  Level Cleveland Center
Sun 03:46:34 PM 40.5483 -79.0092 328° Northwest 249 287 22,000  Level Cleveland Center
Sun 03:47:34 PM 40.6114 -79.0461 336° Northwest 249 287 22,000 -450 Level Cleveland Center
Sun 03:48:34 PM 40.6619 -79.0969 323° Northwest 244 281 21,100 -1,050 Descending Cleveland Center
Sun 03:49:34 PM 40.7147 -79.1478 324° Northwest 239 275 19,900 -1,000 Descending Cleveland Center
Sun 03:50:34 PM 40.7656 -79.1986 323° Northwest 239 275 19,100 -900 Descending Cleveland Center
Sun 03:51:34 PM 40.8119 -79.2444 323° Northwest 218 251 18,100 -1,300 Descending Cleveland Center
Sun 03:52:34 PM 40.8583 -79.2872 325° Northwest 213 245 16,500 -1,750 Descending Cleveland Center
Sun 03:53:34 PM 40.9003 -79.3278 324° Northwest 195 224 14,600 -1,900 Descending Cleveland Center
Sun 03:54:34 PM 40.9383 -79.3683 321° Northwest 189 217 12,700 -1,800 Descending Cleveland Center
Sun 03:55:34 PM 40.9783 -79.4061 325° Northwest 184 212 11,000 -1,750 Descending Cleveland Center
Sun 03:56:34 PM 41.0206 -79.4464 324° Northwest 184 212 9,200 -1,750 Descending Cleveland Center
Sun 03:57:34 PM 41.0606 -79.4872 322° Northwest 184 212 7,500 -1,750 Descending Cleveland Center
Sun 03:58:34 PM 41.1025 -79.5278 324° Northwest 184 212 5,700 -1,200 Descending Cleveland Center
Sun 03:59:34 PM 41.1425 -79.5658 324° Northwest 184 212 5,100 -350 Descending Cleveland Center
Sun 04:00:34 PM 41.1844 -79.6064 324° Northwest 184 212 5,000 -100 Descending Cleveland Center
Sun 04:01:34 PM 41.2267 -79.6472 324° Northwest 190 219 4,900  Descending Cleveland Center
Sun 04:02:34 PM 41.2686 -79.6881 324° Northwest 190 219 5,000  Climbing Cleveland Center
Sun 04:03:34 PM 41.3086 -79.7289 323° Northwest 185 213 4,900 -450 Descending Cleveland Center
Sun 04:04:34 PM 41.3506 -79.7728 322° Northwest 185 213 4,100 -650 Descending Cleveland Center
Sun 04:05:34 PM 41.3944 -79.8136 325° Northwest 195 224 3,600 -250 Descending Cleveland Center
Sun 04:06:34 PM 41.4428 -79.8519 329° Northwest 195 224 3,600 -250 Level Cleveland Center
Sun 04:07:34 PM 41.4844 -79.8264 25° Northeast 161 185 3,100 -450 Descending Cleveland Center
Sun 04:08:34 PM 41.5156 -79.8039 28° Northeast 139 160 2,700 -450 Descending Cleveland Center
Sun 04:09:34 PM 41.5486 -79.7814 27° Northeast 134 154 2,200 -500 Descending Cleveland Center
Sun 04:11:00 PM 41.6000 -79.7333 26° Northeast  Level FlightAware Approximate
Sun 04:18:00 PM 41.6088 -79.7413 26° Northeast  Level Estimated
Sun 04:19:00 PM 41.6088 -79.7413 26° Northeast  Level Estimated
Sun 04:20:00 PM 41.6088 -79.7413 26° Northeast  Level Estimated
Sun 04:21:00 PM 41.6088 -79.7413 26° Northeast  Level Estimated

Login

Don't have an account? Register now (free) for customized features, flight alerts, and more!